createdAt,value
2022-08-05T00:00:19.357Z,38.44
2022-08-05T00:03:05.056Z,38.31
2022-08-05T00:06:06.609Z,38.28
2022-08-05T00:08:34.823Z,38.02
2022-08-05T00:11:20.513Z,38.01
2022-08-05T00:13:57.575Z,38.06
2022-08-05T00:16:36.314Z,37.91
2022-08-05T00:19:11.915Z,37.62
2022-08-05T00:21:38.961Z,38.01
2022-08-05T00:24:11.034Z,37.85
2022-08-05T00:26:39.379Z,37.80
2022-08-05T00:29:17.723Z,37.41
2022-08-05T00:31:53.862Z,37.52
2022-08-05T00:34:55.635Z,37.95
2022-08-05T00:37:20.217Z,37.77
2022-08-05T00:39:57.353Z,38.13
2022-08-05T00:42:39.836Z,37.80
2022-08-05T00:45:11.791Z,37.92
2022-08-05T00:47:56.264Z,38.21
2022-08-05T00:50:25.248Z,38.16
2022-08-05T00:52:55.098Z,38.40
2022-08-05T00:55:23.364Z,37.98
2022-08-05T00:58:16.805Z,37.72
2022-08-05T01:00:47.796Z,38.23
2022-08-05T01:03:22.602Z,37.39
2022-08-05T01:05:54.522Z,37.54
2022-08-05T01:08:40.069Z,38.02
2022-08-05T01:11:24.238Z,37.49
2022-08-05T01:14:33.531Z,37.70
2022-08-05T01:17:14.693Z,37.59
2022-08-05T01:20:02.124Z,37.46
2022-08-05T01:22:37.684Z,37.52
2022-08-05T01:25:53.326Z,38.01
2022-08-05T01:28:57.229Z,38.14
2022-08-05T01:31:45.524Z,37.80
2022-08-05T01:34:48.748Z,38.09
2022-08-05T01:37:34.442Z,38.43
2022-08-05T01:40:06.679Z,38.11
2022-08-05T01:42:39.701Z,38.21
2022-08-05T01:45:09.821Z,38.90
2022-08-05T01:47:43.234Z,39.16
2022-08-05T01:50:28.878Z,39.64
2022-08-05T01:53:03.350Z,39.31
2022-08-05T01:55:36.227Z,39.69
2022-08-05T01:58:30.189Z,40.00
2022-08-05T02:00:59.813Z,39.98
2022-08-05T02:03:39.083Z,40.20
2022-08-05T02:06:33.844Z,40.62
2022-08-05T02:08:58.672Z,40.41
2022-08-05T02:12:03.877Z,40.47
2022-08-05T02:14:38.596Z,41.09
2022-08-05T02:17:29.630Z,40.61
2022-08-05T02:20:11.018Z,41.27
2022-08-05T02:22:45.017Z,41.34
2022-08-05T02:25:20.322Z,41.57
2022-08-05T02:27:59.113Z,40.44
2022-08-05T02:30:38.275Z,40.48
2022-08-05T02:33:24.488Z,40.29
2022-08-05T02:36:06.364Z,40.62
2022-08-05T02:38:37.837Z,40.57
2022-08-05T02:41:16.895Z,40.80
2022-08-05T02:44:05.863Z,40.66
2022-08-05T02:46:53.263Z,41.05
2022-08-05T02:49:36.354Z,41.58
2022-08-05T02:52:29.464Z,41.41
2022-08-05T02:55:01.996Z,41.75
2022-08-05T02:58:11.822Z,41.83
2022-08-05T03:00:22.318Z,41.57
2022-08-05T03:02:54.557Z,42.04
2022-08-05T03:06:54.301Z,41.94
2022-08-05T03:08:12.418Z,42.21
2022-08-05T03:11:02.341Z,42.50
2022-08-05T03:13:51.547Z,42.55
2022-08-05T03:16:19.653Z,42.53
2022-08-05T03:18:48.715Z,42.99
2022-08-05T03:21:15.726Z,42.93
2022-08-05T03:23:45.659Z,42.45
2022-08-05T03:26:31.716Z,43.13
2022-08-05T03:29:00.468Z,42.64
2022-08-05T03:31:55.890Z,42.37
2022-08-05T03:34:16.701Z,42.66
2022-08-05T03:36:43.985Z,42.88
2022-08-05T03:39:12.921Z,43.26
2022-08-05T03:41:47.095Z,43.10
2022-08-05T03:44:19.831Z,43.40
2022-08-05T03:46:47.488Z,43.79
2022-08-05T03:49:15.953Z,43.41
2022-08-05T03:52:50.073Z,43.30
2022-08-05T03:55:34.713Z,43.85
2022-08-05T03:57:46.350Z,44.04
2022-08-05T04:00:16.983Z,44.33
2022-08-05T04:02:58.474Z,44.45
2022-08-05T04:05:36.129Z,44.52
2022-08-05T04:08:14.923Z,44.44
2022-08-05T04:10:58.457Z,45.00
2022-08-05T04:13:50.859Z,44.86
2022-08-05T04:16:24.202Z,45.24
2022-08-05T04:18:54.783Z,44.82
2022-08-05T04:22:05.265Z,45.44
2022-08-05T04:24:19.407Z,45.06
2022-08-05T04:26:50.830Z,44.73
2022-08-05T04:29:18.794Z,44.91
2022-08-05T04:31:48.458Z,45.33
2022-08-05T04:34:31.343Z,45.19
2022-08-05T04:37:00.754Z,45.80
2022-08-05T04:39:27.999Z,46.09
2022-08-05T04:41:55.454Z,46.64
2022-08-05T04:44:29.385Z,47.28
2022-08-05T04:47:09.154Z,47.16
2022-08-05T04:50:06.499Z,47.49
2022-08-05T04:52:28.123Z,47.61
2022-08-05T04:54:57.026Z,48.30
2022-08-05T04:57:25.648Z,47.54
2022-08-05T04:59:58.718Z,47.65
2022-08-05T05:02:41.081Z,47.55
2022-08-05T05:05:26.250Z,47.33
2022-08-05T05:08:02.100Z,47.87
2022-08-05T05:10:42.193Z,46.59
2022-08-05T05:13:22.880Z,47.01
2022-08-05T05:15:56.796Z,46.58
2022-08-05T05:18:33.408Z,45.74
2022-08-05T05:21:03.593Z,45.48
2022-08-05T05:23:39.176Z,45.35
2022-08-05T05:26:18.359Z,45.15
2022-08-05T05:28:45.408Z,45.11
2022-08-05T05:31:13.392Z,44.47
2022-08-05T05:33:43.378Z,44.52
2022-08-05T05:36:28.637Z,44.35
2022-08-05T05:38:57.821Z,44.42
2022-08-05T05:41:24.997Z,43.77
2022-08-05T05:43:57.247Z,44.17
2022-08-05T05:46:25.694Z,42.75
2022-08-05T05:48:52.559Z,41.47
2022-08-05T05:51:25.609Z,40.88
2022-08-05T05:53:58.832Z,39.86
2022-08-05T05:56:32.708Z,40.06
2022-08-05T05:59:06.752Z,41.13
2022-08-05T06:01:39.056Z,40.79
2022-08-05T06:04:14.466Z,40.06
2022-08-05T06:06:47.774Z,40.55
2022-08-05T06:09:24.657Z,40.29
2022-08-05T06:12:02.684Z,40.37
2022-08-05T06:14:34.588Z,40.46
2022-08-05T06:17:22.315Z,40.50
2022-08-05T06:19:56.711Z,39.86
2022-08-05T06:22:29.774Z,39.39
2022-08-05T06:24:57.708Z,39.51
2022-08-05T06:28:10.932Z,39.62
2022-08-05T06:30:19.864Z,39.64
2022-08-05T06:32:48.526Z,39.29
2022-08-05T06:36:03.008Z,39.71
2022-08-05T06:38:08.328Z,39.57
2022-08-05T06:40:44.631Z,40.19
2022-08-05T06:43:57.742Z,40.11
2022-08-05T06:46:06.695Z,40.26
2022-08-05T06:48:50.446Z,39.79
2022-08-05T06:51:29.716Z,39.59
2022-08-05T06:54:03.528Z,39.61
2022-08-05T06:56:33.899Z,39.28
2022-08-05T06:59:08.518Z,38.74
2022-08-05T07:01:41.653Z,38.59
2022-08-05T07:04:10.298Z,38.47
2022-08-05T07:06:37.370Z,39.02
2022-08-05T07:09:05.097Z,38.40
2022-08-05T07:11:36.799Z,39.03
2022-08-05T07:14:30.002Z,39.51
2022-08-05T07:17:58.903Z,38.70
2022-08-05T07:22:36.305Z,38.60
2022-08-05T07:25:22.382Z,38.57
2022-08-05T07:28:02.293Z,37.36
2022-08-05T07:30:38.438Z,36.76
2022-08-05T07:33:16.467Z,37.04
2022-08-05T07:36:05.157Z,36.82
2022-08-05T07:38:43.733Z,36.48
2022-08-05T07:42:07.915Z,36.22
2022-08-05T07:44:18.499Z,35.86
2022-08-05T07:46:49.661Z,36.41
2022-08-05T07:49:18.822Z,36.51
2022-08-05T07:51:53.269Z,36.88
2022-08-05T07:54:31.744Z,36.79
2022-08-05T07:57:18.170Z,36.98
2022-08-05T07:59:51.184Z,36.88
2022-08-05T08:02:26.560Z,36.54
2022-08-05T08:04:59.638Z,36.39
2022-08-05T08:07:28.441Z,36.52
2022-08-05T08:09:55.780Z,36.30
2022-08-05T08:12:33.323Z,37.25
2022-08-05T08:15:09.775Z,36.88
2022-08-05T08:17:50.565Z,36.49
2022-08-05T08:20:59.907Z,36.58
2022-08-05T08:24:03.271Z,35.87
2022-08-05T08:26:04.490Z,36.10
2022-08-05T08:28:36.926Z,35.30
2022-08-05T08:31:19.398Z,35.30
2022-08-05T08:33:50.115Z,35.57
2022-08-05T08:36:29.623Z,34.92
2022-08-05T08:39:04.638Z,35.58
2022-08-05T08:41:50.974Z,35.57
2022-08-05T08:45:17.053Z,35.12
2022-08-05T08:47:47.724Z,35.64
2022-08-05T08:50:30.186Z,34.82
2022-08-05T08:53:03.453Z,35.23
2022-08-05T08:56:03.097Z,35.63
2022-08-05T08:58:43.591Z,34.77
2022-08-05T09:01:16.933Z,34.63
2022-08-05T09:03:57.589Z,35.23
2022-08-05T09:06:29.532Z,35.07
2022-08-05T09:09:00.641Z,35.66
2022-08-05T09:11:50.983Z,35.56
2022-08-05T09:14:56.546Z,35.59
2022-08-05T09:17:39.885Z,35.61
2022-08-05T09:20:02.568Z,34.88
2022-08-05T09:23:07.703Z,35.43
2022-08-05T09:25:59.841Z,35.44
2022-08-05T09:28:32.513Z,35.63
2022-08-05T09:31:22.969Z,34.85
2022-08-05T09:34:04.457Z,35.20
2022-08-05T09:36:55.961Z,34.91
2022-08-05T09:39:45.283Z,34.34
2022-08-05T09:42:24.316Z,34.61
2022-08-05T09:44:57.445Z,33.98
2022-08-05T09:47:54.938Z,33.52
2022-08-05T09:50:37.623Z,33.57
2022-08-05T09:53:05.190Z,33.63
2022-08-05T09:55:57.837Z,34.28
2022-08-05T09:58:24.892Z,34.07
2022-08-05T10:01:15.393Z,33.58
2022-08-05T10:04:10.722Z,33.80
2022-08-05T10:06:41.210Z,33.78
2022-08-05T10:09:27.781Z,32.74
2022-08-05T10:12:18.586Z,33.00
2022-08-05T10:15:16.929Z,33.33
2022-08-05T10:18:02.372Z,32.70
2022-08-05T10:20:33.308Z,32.84
2022-08-05T10:23:01.938Z,32.94
2022-08-05T10:25:30.854Z,32.33
2022-08-05T10:28:13.146Z,31.81
2022-08-05T10:32:47.741Z,31.60
2022-08-05T10:33:35.158Z,31.06
2022-08-05T10:36:05.115Z,30.97
2022-08-05T10:38:35.827Z,31.82
2022-08-05T10:41:45.244Z,31.96
2022-08-05T10:44:20.272Z,31.61
2022-08-05T10:46:56.425Z,31.46
2022-08-05T10:49:33.326Z,30.29
2022-08-05T10:52:47.006Z,30.74
2022-08-05T10:55:18.793Z,29.92
2022-08-05T10:57:46.274Z,30.16
2022-08-05T11:00:24.725Z,30.16
2022-08-05T11:03:24.529Z,29.89
2022-08-05T11:06:15.888Z,29.45
2022-08-05T11:09:32.144Z,29.09
2022-08-05T11:12:45.197Z,29.04
2022-08-05T11:15:59.185Z,29.27
2022-08-05T11:18:32.573Z,29.20
2022-08-05T11:21:06.324Z,28.64
2022-08-05T11:24:02.974Z,28.61
2022-08-05T11:26:32.636Z,28.33
2022-08-05T11:29:11.532Z,28.80
2022-08-05T11:31:58.704Z,28.69
2022-08-05T11:34:50.900Z,28.44
2022-08-05T11:38:28.579Z,28.40
2022-08-05T11:41:54.730Z,28.63
2022-08-05T11:44:40.247Z,28.46
2022-08-05T11:47:11.839Z,28.13
2022-08-05T11:49:43.468Z,28.89
2022-08-05T11:52:29.405Z,28.56
2022-08-05T11:54:59.396Z,28.35
2022-08-05T11:58:08.351Z,28.39
2022-08-05T12:00:31.867Z,28.18
2022-08-05T12:03:29.242Z,28.38
2022-08-05T12:06:06.193Z,28.28
2022-08-05T12:08:47.920Z,28.54
2022-08-05T12:11:22.489Z,28.10
2022-08-05T12:14:05.132Z,28.23
2022-08-05T12:16:38.378Z,28.11
2022-08-05T12:19:08.462Z,28.05
2022-08-05T12:21:44.278Z,27.93
2022-08-05T12:24:17.567Z,27.85
2022-08-05T12:26:45.745Z,27.65
2022-08-05T12:29:23.098Z,27.63
2022-08-05T12:31:53.752Z,27.92
2022-08-05T12:34:31.441Z,27.94
2022-08-05T12:37:17.638Z,28.03
2022-08-05T12:39:55.026Z,28.24
2022-08-05T12:42:31.238Z,28.51
2022-08-05T12:45:10.484Z,28.72
2022-08-05T12:47:43.440Z,28.62
2022-08-05T12:50:25.473Z,28.58
2022-08-05T12:53:00.965Z,28.72
2022-08-05T12:55:32.795Z,28.88
2022-08-05T12:58:38.393Z,28.50
2022-08-05T13:02:03.287Z,28.64
2022-08-05T13:03:38.986Z,28.88
2022-08-05T13:06:17.674Z,29.08
2022-08-05T13:08:51.506Z,28.45
2022-08-05T13:11:25.499Z,29.16
2022-08-05T13:14:24.641Z,28.41
2022-08-05T13:17:04.083Z,28.53
2022-08-05T13:19:40.387Z,28.54
2022-08-05T13:22:28.074Z,28.44
2022-08-05T13:25:05.143Z,28.58
2022-08-05T13:27:38.115Z,28.84
2022-08-05T13:30:33.725Z,29.18
2022-08-05T13:33:01.294Z,28.65
2022-08-05T13:35:42.864Z,28.87
2022-08-05T13:38:20.269Z,28.78
2022-08-05T13:40:57.606Z,28.50
2022-08-05T13:43:24.490Z,28.75
2022-08-05T13:46:12.603Z,28.92
2022-08-05T13:48:57.993Z,28.70
2022-08-05T13:51:36.500Z,28.62
2022-08-05T13:54:12.012Z,28.30
2022-08-05T13:56:45.456Z,28.52
2022-08-05T13:59:24.032Z,28.55
2022-08-05T14:02:00.121Z,28.74
2022-08-05T14:04:53.994Z,28.55
2022-08-05T14:08:00.645Z,28.97
2022-08-05T14:10:28.718Z,28.69
2022-08-05T14:12:59.447Z,28.54
2022-08-05T14:16:07.194Z,28.83
2022-08-05T14:18:18.313Z,29.37
2022-08-05T14:20:54.814Z,28.50
2022-08-05T14:23:25.414Z,29.44
2022-08-05T14:25:58.074Z,28.54
2022-08-05T14:28:29.559Z,28.54
2022-08-05T14:30:59.788Z,28.06
2022-08-05T14:33:32.397Z,28.92
2022-08-05T14:36:21.489Z,28.34
2022-08-05T14:38:50.292Z,28.29
2022-08-05T14:41:18.609Z,28.11
2022-08-05T14:44:02.575Z,28.30
2022-08-05T14:46:34.996Z,27.67
2022-08-05T14:49:07.118Z,27.50
2022-08-05T14:51:42.558Z,27.97
2022-08-05T14:54:26.371Z,27.35
2022-08-05T14:56:56.711Z,27.50
2022-08-05T14:59:23.914Z,27.45
2022-08-05T15:01:50.998Z,27.46
2022-08-05T15:04:20.664Z,27.76
2022-08-05T15:06:53.066Z,29.04
2022-08-05T15:09:50.507Z,27.42
2022-08-05T15:12:11.627Z,27.73
2022-08-05T15:14:50.289Z,27.59
2022-08-05T15:17:46.868Z,27.66
2022-08-05T15:20:19.008Z,27.58
2022-08-05T15:22:54.922Z,27.21
2022-08-05T15:25:51.346Z,27.31
2022-08-05T15:28:16.068Z,27.33
2022-08-05T15:30:45.509Z,27.62
2022-08-05T15:34:04.705Z,27.27
2022-08-05T15:36:04.630Z,27.21
2022-08-05T15:38:41.197Z,27.63
2022-08-05T15:41:22.879Z,27.45
2022-08-05T15:43:54.592Z,27.51
2022-08-05T15:46:24.330Z,27.93
2022-08-05T15:48:54.688Z,27.69
2022-08-05T15:52:12.811Z,27.26
2022-08-05T15:54:16.573Z,28.11
2022-08-05T15:56:43.804Z,27.24
2022-08-05T15:59:21.751Z,27.35
2022-08-05T16:01:53.005Z,27.50
2022-08-05T16:04:25.575Z,27.67
2022-08-05T16:06:55.569Z,27.22
2022-08-05T16:09:23.826Z,27.08
2022-08-05T16:11:53.830Z,26.73
2022-08-05T16:14:22.599Z,27.12
2022-08-05T16:16:50.527Z,26.78
2022-08-05T16:19:25.590Z,27.07
2022-08-05T16:22:10.867Z,27.20
2022-08-05T16:24:51.218Z,27.54
2022-08-05T16:27:19.438Z,27.59
2022-08-05T16:30:08.405Z,28.02
2022-08-05T16:32:50.655Z,28.08
2022-08-05T16:35:17.545Z,28.09
2022-08-05T16:38:15.276Z,28.22
2022-08-05T16:40:32.900Z,28.77
2022-08-05T16:42:59.975Z,28.57
2022-08-05T16:46:06.026Z,28.84
2022-08-05T16:48:25.292Z,28.27
2022-08-05T16:50:54.963Z,28.58
2022-08-05T16:54:02.076Z,28.94
2022-08-05T16:56:09.913Z,28.62
2022-08-05T16:58:39.042Z,28.72
2022-08-05T17:01:06.612Z,28.89
2022-08-05T17:03:37.550Z,28.87
2022-08-05T17:06:06.990Z,29.13
2022-08-05T17:08:51.763Z,28.97
2022-08-05T17:11:25.532Z,29.00
2022-08-05T17:14:05.243Z,28.86
2022-08-05T17:16:36.473Z,29.00
2022-08-05T17:19:09.746Z,28.88
2022-08-05T17:21:39.380Z,29.18
2022-08-05T17:24:19.865Z,28.88
2022-08-05T17:26:58.225Z,29.32
2022-08-05T17:29:33.719Z,29.19
2022-08-05T17:32:11.331Z,29.04
2022-08-05T17:34:46.169Z,29.29
2022-08-05T17:37:39.824Z,29.00
2022-08-05T17:40:02.126Z,27.96
2022-08-05T17:42:32.352Z,27.92
2022-08-05T17:45:17.916Z,27.49
2022-08-05T17:47:54.004Z,27.46
2022-08-05T17:50:28.060Z,27.05
2022-08-05T17:53:01.248Z,26.78
2022-08-05T17:55:34.259Z,27.03
2022-08-05T17:58:04.696Z,26.71
2022-08-05T18:00:34.618Z,27.32
2022-08-05T18:03:02.415Z,27.40
2022-08-05T18:05:35.679Z,27.44
2022-08-05T18:08:03.736Z,27.32
2022-08-05T18:10:32.060Z,27.34
2022-08-05T18:13:01.942Z,27.28
2022-08-05T18:15:35.171Z,27.45
2022-08-05T18:18:11.229Z,27.44
2022-08-05T18:20:38.905Z,28.10
2022-08-05T18:23:09.509Z,28.31
2022-08-05T18:25:44.882Z,28.16
2022-08-05T18:28:16.593Z,28.75
2022-08-05T18:30:50.761Z,28.76
2022-08-05T18:33:23.078Z,29.38
2022-08-05T18:36:00.938Z,29.81
2022-08-05T18:38:36.207Z,30.08
2022-08-05T18:41:59.497Z,30.23
2022-08-05T18:43:52.732Z,30.56
2022-08-05T18:46:20.633Z,30.96
2022-08-05T18:48:53.668Z,31.13
2022-08-05T18:52:06.453Z,31.47
2022-08-05T18:54:28.589Z,31.71
2022-08-05T18:57:01.340Z,31.77
2022-08-05T18:59:43.863Z,32.14
2022-08-05T19:02:27.838Z,32.23
2022-08-05T19:05:03.221Z,33.27
2022-08-05T19:07:48.070Z,34.63
2022-08-05T19:10:28.496Z,35.87
2022-08-05T19:12:57.453Z,36.14
2022-08-05T19:15:57.538Z,36.53
2022-08-05T19:18:22.235Z,36.87
2022-08-05T19:20:54.107Z,36.79
2022-08-05T19:24:07.035Z,36.23
2022-08-05T19:26:11.128Z,37.26
2022-08-05T19:28:43.665Z,35.86
2022-08-05T19:31:17.735Z,34.12
2022-08-05T19:33:48.453Z,33.29
2022-08-05T19:36:29.230Z,33.21
2022-08-05T19:39:01.136Z,33.23
2022-08-05T19:41:58.163Z,32.99
2022-08-05T19:44:18.948Z,33.04
2022-08-05T19:46:47.224Z,33.51
2022-08-05T19:49:17.921Z,33.59
2022-08-05T19:52:05.861Z,33.74
2022-08-05T19:54:35.014Z,34.20
2022-08-05T19:57:09.358Z,34.75
2022-08-05T19:59:59.629Z,35.00
2022-08-05T20:02:30.313Z,35.40
2022-08-05T20:04:59.758Z,35.43
2022-08-05T20:07:47.795Z,35.32
2022-08-05T20:10:22.411Z,35.35
2022-08-05T20:12:52.227Z,35.73
2022-08-05T20:15:23.188Z,35.51
2022-08-05T20:18:10.252Z,35.90
2022-08-05T20:20:57.241Z,35.69
2022-08-05T20:23:39.398Z,35.30
2022-08-05T20:26:15.243Z,35.64
2022-08-05T20:28:51.401Z,35.30
2022-08-05T20:31:28.329Z,35.99
2022-08-05T20:34:04.935Z,35.83
2022-08-05T20:36:31.838Z,36.73
2022-08-05T20:38:59.689Z,36.97
2022-08-05T20:41:44.453Z,37.10
2022-08-05T20:44:28.876Z,37.89
2022-08-05T20:47:04.061Z,37.97
2022-08-05T20:49:33.208Z,38.52
2022-08-05T20:52:07.291Z,38.41
2022-08-05T20:54:43.214Z,38.92
2022-08-05T20:57:42.157Z,39.53
2022-08-05T21:00:40.483Z,40.34
2022-08-05T21:03:06.048Z,40.58
2022-08-05T21:05:47.526Z,40.34
2022-08-05T21:08:27.938Z,41.11
2022-08-05T21:11:09.151Z,41.28
2022-08-05T21:13:48.165Z,42.00
2022-08-05T21:16:29.702Z,42.57
2022-08-05T21:19:03.659Z,42.80
2022-08-05T21:21:44.232Z,43.22
2022-08-05T21:24:19.663Z,42.76
2022-08-05T21:26:53.373Z,43.25
2022-08-05T21:29:31.717Z,43.09
2022-08-05T21:32:01.290Z,43.51
2022-08-05T21:34:28.983Z,43.58
2022-08-05T21:36:58.619Z,44.05
2022-08-05T21:39:26.761Z,44.65
2022-08-05T21:42:01.237Z,44.58
2022-08-05T21:44:30.925Z,45.58
2022-08-05T21:46:59.663Z,46.16
2022-08-05T21:50:00.414Z,46.07
2022-08-05T21:52:27.747Z,46.73
2022-08-05T21:55:06.002Z,46.76
2022-08-05T21:57:35.161Z,47.24
2022-08-05T22:00:10.868Z,47.96
2022-08-05T22:02:39.701Z,48.37
2022-08-05T22:05:10.007Z,48.96
2022-08-05T22:07:39.773Z,49.78
2022-08-05T22:10:26.528Z,49.70
2022-08-05T22:12:58.854Z,50.03
2022-08-05T22:16:01.136Z,50.82
2022-08-05T22:18:14.674Z,50.95
2022-08-05T22:20:42.884Z,51.18
2022-08-05T22:24:01.371Z,52.27
2022-08-05T22:26:35.474Z,52.97
2022-08-05T22:29:03.414Z,52.99
2022-08-05T22:31:31.634Z,53.90
2022-08-05T22:34:20.140Z,55.17
2022-08-05T22:36:56.924Z,55.03
2022-08-05T22:39:33.033Z,55.70
2022-08-05T22:42:10.964Z,55.76
2022-08-05T22:44:48.172Z,56.72
2022-08-05T22:47:29.635Z,56.81
2022-08-05T22:50:19.393Z,56.34
2022-08-05T22:52:51.451Z,56.42
2022-08-05T22:55:21.392Z,57.09
2022-08-05T22:57:53.753Z,57.65
2022-08-05T23:00:24.553Z,57.62
2022-08-05T23:02:53.904Z,57.86
2022-08-05T23:05:22.346Z,58.53
2022-08-05T23:07:51.426Z,58.45
2022-08-05T23:10:24.034Z,58.60
2022-08-05T23:12:54.441Z,58.44
2022-08-05T23:15:29.235Z,58.46
2022-08-05T23:18:00.903Z,58.53
2022-08-05T23:20:32.253Z,59.32
2022-08-05T23:23:00.655Z,60.05
2022-08-05T23:25:52.671Z,60.46
2022-08-05T23:28:20.557Z,60.03
2022-08-05T23:30:53.470Z,61.09
2022-08-05T23:33:26.257Z,61.23
2022-08-05T23:36:10.780Z,61.15
2022-08-05T23:38:41.009Z,60.45
2022-08-05T23:41:09.875Z,61.67
2022-08-05T23:44:03.195Z,62.06
2022-08-05T23:46:23.801Z,62.59
2022-08-05T23:49:00.533Z,62.63
2022-08-05T23:51:54.295Z,63.01
2022-08-05T23:54:39.664Z,63.24
2022-08-05T23:57:08.229Z,63.18
